EDT,Max TemperatureF,Mean TemperatureF,Min TemperatureF,Max Dew PointF,MeanDew PointF,Min DewpointF,Max Humidity, Mean Humidity, Min Humidity, Max Sea Level PressureIn, Mean Sea Level PressureIn, Min Sea Level PressureIn, Max VisibilityMiles, Mean VisibilityMiles, Min VisibilityMiles, Max Wind SpeedMPH, Mean Wind SpeedMPH, Max Gust SpeedMPH,PrecipitationIn, CloudCover, Events, WindDirDegrees
2013-8-1,69,64,59,63,58,54,100,84,60,30.00,29.91,29.87,10,9,2,14,4,24,0.00,4,Rain,241
2013-8-2,69,62,55,59,55,50,100,79,49,29.97,29.94,29.92,10,8,2,10,3,22,0.00,5,Rain-Thunderstorm,237
2013-8-3,69,62,55,59,53,46,94,72,43,30.01,29.97,29.91,10,10,10,13,5,20,0.00,4,,286
2013-8-4,64,58,51,54,51,46,100,81,59,30.11,30.05,29.99,10,10,10,10,3,18,0.00,5,,306
2013-8-5,68,57,46,54,48,43,100,74,46,30.16,30.11,30.07,10,10,10,6,1,,0.00,2,,308
2013-8-6,73,62,50,57,52,50,100,73,46,30.11,30.08,30.05,10,10,10,9,3,,0.00,3,Rain,185
2013-8-7,73,66,59,64,60,55,94,84,69,30.07,30.03,29.96,10,10,10,13,8,17,0.00,6,,188
2013-8-8,77,68,60,68,65,59,100,90,74,30.04,30.02,29.99,10,9,0,10,5,,0.00,6,Fog-Rain-Thunderstorm,199
2013-8-9,69,64,59,66,63,54,100,90,68,30.03,29.96,29.93,10,7,0,7,2,,0.00,5,Fog-Rain-Thunderstorm,279
2013-8-10,68,62,55,55,51,46,94,72,46,30.16,30.10,30.03,10,10,10,12,3,20,0.00,1,,293
2013-8-11,69,60,50,54,51,48,100,74,49,30.18,30.14,30.11,10,10,10,8,1,,0.00,1,,273
2013-8-12,71,62,53,61,56,52,100,83,57,30.10,30.04,29.93,10,10,10,7,3,,0.00,5,Rain,226
2013-8-13,66,58,50,63,55,43,100,87,67,29.93,29.87,29.82,10,8,0,13,5,23,0.00,7,Fog-Rain-Thunderstorm,271
2013-8-14,60,53,46,48,46,43,100,80,55,30.13,30.02,29.91,10,10,4,13,4,21,0.00,6,Rain,299
2013-8-15,66,55,44,52,49,45,100,80,56,30.19,30.16,30.13,10,10,7,8,1,,0.00,4,,263
2013-8-16,69,58,48,52,49,45,100,74,46,30.26,30.21,30.17,10,10,0,6,3,,0.00,2,Fog,208
2013-8-17,71,61,51,54,51,48,94,69,50,30.34,30.30,30.26,10,10,5,7,2,,0.00,1,,121
2013-8-18,69,63,57,57,54,48,88,72,60,30.30,30.26,30.19,10,10,10,8,2,,0.00,1,,196
2013-8-19,71,63,55,61,58,55,100,84,68,30.20,30.15,30.12,10,10,4,7,2,,0.00,4,,244
2013-8-20,77,64,51,61,57,52,100,80,50,30.23,30.19,30.14,10,9,0,7,1,,0.00,1,Fog,273
2013-8-21,78,68,57,63,59,55,100,75,47,30.26,30.20,30.12,10,9,3,7,3,,0.00,1,,236
2013-8-22,77,68,60,66,62,59,100,85,65,30.14,30.07,30.01,10,9,0,18,4,29,0.00,3,Fog-Rain-Thunderstorm,255
2013-8-23,71,61,51,63,54,48,100,76,43,30.25,30.14,30.06,10,9,0,10,3,10,0.00,2,Fog,30
2013-8-24,71,60,48,52,50,45,100,74,40,30.39,30.34,30.25,10,10,10,7,3,,0.00,0,,86
2013-8-25,73,63,53,57,53,50,94,70,50,30.41,30.34,30.25,10,10,10,8,4,,0.00,1,,221
2013-8-26,78,70,62,64,60,54,100,79,61,30.27,30.14,30.03,10,9,2,9,6,18,0.00,3,Rain-Thunderstorm,251
2013-8-27,77,70,62,70,65,63,100,91,69,30.04,30.00,29.96,10,6,0,8,1,,0.00,7,Fog-Rain-Thunderstorm,252
2013-8-28,73,68,64,68,65,64,100,95,78,30.02,29.95,29.93,10,6,0,9,3,,0.00,7,Fog-Rain,69
2013-8-29,78,69,60,66,63,61,100,86,61,30.12,30.08,30.02,10,6,0,8,4,,0.00,4,Fog,55
2013-8-30,78,68,59,64,62,59,100,82,54,30.10,29.99,29.86,10,7,0,7,3,,0.00,3,Fog-Rain-Thunderstorm,230
2013-8-31,75,70,64,68,65,63,100,87,78,29.92,29.87,29.82,10,8,5,7,4,,0.00,6,Rain-Thunderstorm,252